Time;durP1;ratioP1;P1;durP2;ratioP2;P2;SDS_P1;SDS_P2;PMS_P1;PMS_P2;Temp;Humidity;BMP_temperature;BMP_pressure;BME280_temperature;BME280_humidity;BME280_pressure;Samples;Min_cycle;Max_cycle;Signal;HPM_P1;HPM_P2
2021/12/08 00:01:09;;;;;;;3.75;2.30;;;8.10;87.60;;;;;;5044901;28;20182;-84
2021/12/08 00:03:35;;;;;;;2.35;1.90;;;8.10;87.70;;;;;;5040607;28;20189;-85
2021/12/08 00:06:01;;;;;;;3.50;2.07;;;8.00;87.50;;;;;;5023118;28;20740;-85
2021/12/08 00:08:29;;;;;;;5.20;2.25;;;8.20;87.50;;;;;;5021235;28;20449;-85
2021/12/08 00:13:27;;;;;;;2.15;1.80;;;8.40;87.30;;;;;;5024782;28;20183;-84
2021/12/08 00:15:55;;;;;;;8.75;2.42;;;8.40;87.20;;;;;;5023821;28;20196;-84
2021/12/08 00:18:24;;;;;;;4.30;2.05;;;8.40;87.00;;;;;;5025464;28;20685;-85
2021/12/08 00:20:53;;;;;;;5.95;3.10;;;8.40;86.80;;;;;;5023942;28;20206;-84
2021/12/08 00:23:21;;;;;;;5.75;2.45;;;8.40;86.50;;;;;;5017090;28;20200;-85
2021/12/08 00:25:47;;;;;;;3.38;2.35;;;8.30;86.40;;;;;;5014217;28;20698;-83
2021/12/08 00:28:15;;;;;;;3.03;2.38;;;8.30;86.30;;;;;;5020286;28;20194;-83
2021/12/08 00:30:44;;;;;;;3.42;1.80;;;8.50;86.40;;;;;;5019563;28;20183;-82
2021/12/08 00:33:11;;;;;;;4.97;2.42;;;8.60;86.10;;;;;;5018111;28;20182;-84
2021/12/08 00:35:38;;;;;;;4.03;2.15;;;8.50;85.70;;;;;;5018409;28;20202;-83
2021/12/08 00:38:05;;;;;;;4.57;2.15;;;8.70;85.80;;;;;;5018454;28;20183;-83
2021/12/08 00:40:31;;;;;;;3.45;1.73;;;8.70;85.60;;;;;;5001978;28;20281;-83
2021/12/08 00:42:57;;;;;;;3.33;2.38;;;8.70;85.60;;;;;;5018208;28;20213;-82
2021/12/08 00:45:25;;;;;;;11.13;2.30;;;8.70;85.50;;;;;;5017959;28;20214;-83
2021/12/08 00:47:52;;;;;;;3.83;2.40;;;8.70;85.30;;;;;;5001840;28;20178;-83
2021/12/08 00:50:21;;;;;;;4.40;2.20;;;8.70;85.30;;;;;;5019108;28;20178;-83
2021/12/08 00:52:47;;;;;;;11.48;2.83;;;8.60;85.20;;;;;;5021000;28;20190;-84
2021/12/08 00:55:15;;;;;;;7.00;2.13;;;8.60;85.10;;;;;;5032245;28;20210;-83
2021/12/08 00:57:42;;;;;;;6.38;2.58;;;8.60;85.10;;;;;;5036413;28;20417;-83
2021/12/08 01:00:14;;;;;;;7.75;2.55;;;8.60;85.10;;;;;;5035916;28;20255;-82
2021/12/08 01:02:40;;;;;;;3.65;2.08;;;8.60;85.00;;;;;;5034269;28;20233;-83
2021/12/08 01:05:11;;;;;;;7.50;2.73;;;8.50;84.70;;;;;;5015467;28;20238;-83
2021/12/08 01:07:38;;;;;;;3.47;2.00;;;8.40;84.60;;;;;;5017572;28;20540;-83
2021/12/08 01:20:13;;;;;;;4.78;2.47;;;8.40;84.80;;;;;;5025907;28;20189;-84
2021/12/08 01:22:39;;;;;;;10.82;2.17;;;8.20;84.40;;;;;;5036576;28;20246;-84
2021/12/08 01:25:06;;;;;;;3.60;1.80;;;8.00;84.00;;;;;;5037829;28;20279;-84
2021/12/08 01:27:34;;;;;;;12.30;3.33;;;8.10;84.30;;;;;;5038900;28;20785;-84
2021/12/08 01:30:00;;;;;;;3.42;1.95;;;8.10;84.40;;;;;;5038004;28;20220;-84
2021/12/08 01:32:27;;;;;;;6.18;1.92;;;8.00;84.10;;;;;;5037544;28;20192;-84
2021/12/08 01:34:53;;;;;;;3.47;2.15;;;8.00;84.20;;;;;;5020112;28;20210;-84
2021/12/08 01:37:20;;;;;;;9.05;2.45;;;8.00;84.20;;;;;;5016670;28;20174;-84
2021/12/08 01:39:47;;;;;;;7.35;2.50;;;8.00;84.10;;;;;;5018238;28;20190;-84
2021/12/08 01:42:17;;;;;;;19.40;3.30;;;8.00;84.10;;;;;;5021510;28;20182;-84
2021/12/08 01:47:29;;;;;;;9.90;2.80;;;7.90;84.50;;;;;;5032976;28;20162;-84
2021/12/08 01:49:56;;;;;;;7.07;2.17;;;7.80;84.40;;;;;;5042294;28;20193;-83
2021/12/08 01:52:22;;;;;;;3.90;2.17;;;7.80;84.60;;;;;;5050969;28;20190;-83
2021/12/08 01:54:48;;;;;;;5.80;2.15;;;7.70;84.80;;;;;;5038228;28;20205;-84
2021/12/08 01:57:15;;;;;;;9.27;2.37;;;7.90;85.10;;;;;;5035048;28;20178;-84
2021/12/08 01:59:41;;;;;;;9.05;2.45;;;8.00;85.00;;;;;;5035263;28;20420;-83
2021/12/08 02:02:07;;;;;;;4.10;1.70;;;8.00;84.70;;;;;;5036643;28;20178;-83
2021/12/08 02:04:33;;;;;;;4.47;2.00;;;8.00;84.60;;;;;;5036779;28;20209;-84
2021/12/08 02:07:00;;;;;;;10.87;4.10;;;8.10;84.50;;;;;;5032881;28;20200;-83
2021/12/08 02:09:27;;;;;;;4.55;1.83;;;8.10;84.10;;;;;;5035564;28;20429;-84
2021/12/08 02:11:55;;;;;;;6.20;2.20;;;8.00;83.50;;;;;;5036147;28;20186;-83
2021/12/08 02:14:22;;;;;;;6.20;2.00;;;8.10;83.60;;;;;;5037071;28;20201;-83
2021/12/08 02:16:50;;;;;;;12.38;4.28;;;8.10;83.50;;;;;;5037375;28;20208;-83
2021/12/08 02:19:16;;;;;;;10.57;2.00;;;8.10;83.10;;;;;;5037658;28;20174;-84
2021/12/08 02:21:43;;;;;;;2.20;1.73;;;8.00;82.40;;;;;;5036547;28;20194;-83
2021/12/08 02:24:13;;;;;;;10.20;1.92;;;8.20;82.50;;;;;;5020626;28;20194;-84
2021/12/08 02:26:43;;;;;;;6.20;1.70;;;8.30;82.10;;;;;;5023636;28;20190;-83
2021/12/08 02:29:14;;;;;;;14.35;2.30;;;8.20;81.60;;;;;;5024255;28;20229;-83
2021/12/08 02:47:55;;;;;;;3.72;1.50;;;8.10;80.50;;;;;;5018703;28;20569;-84
2021/12/08 02:50:25;;;;;;;7.03;1.40;;;8.00;79.70;;;;;;5017371;28;20167;-84
2021/12/08 02:52:52;;;;;;;2.50;1.45;;;8.00;79.40;;;;;;5016943;28;20653;-83
2021/12/08 02:55:18;;;;;;;2.70;1.40;;;8.10;80.10;;;;;;5018532;28;20696;-83
2021/12/08 02:57:46;;;;;;;3.03;1.90;;;7.70;78.60;;;;;;5016713;28;20269;-84
2021/12/08 03:00:16;;;;;;;6.50;1.58;;;7.60;79.00;;;;;;5016941;28;20413;-84
2021/12/08 03:02:42;;;;;;;6.93;1.95;;;7.50;79.10;;;;;;5016783;28;20236;-84
2021/12/08 03:05:09;;;;;;;3.40;1.63;;;7.20;79.30;;;;;;5017363;28;20294;-84
2021/12/08 03:07:35;;;;;;;2.42;1.25;;;7.30;80.00;;;;;;5017425;28;20601;-83
2021/12/08 03:10:07;;;;;;;4.55;2.17;;;7.40;80.30;;;;;;5017083;28;20170;-83
2021/12/08 03:12:33;;;;;;;1.98;1.40;;;7.30;79.80;;;;;;5016849;28;20182;-83
2021/12/08 03:14:58;;;;;;;4.90;1.70;;;7.50;79.80;;;;;;5035106;28;20198;-83
2021/12/08 03:17:24;;;;;;;7.37;1.70;;;7.40;79.70;;;;;;5036900;28;20476;-83
2021/12/08 03:19:50;;;;;;;5.67;1.70;;;7.30;79.90;;;;;;5039229;28;20230;-84
2021/12/08 03:22:16;;;;;;;4.20;1.40;;;7.40;79.80;;;;;;5038072;28;20154;-84
2021/12/08 03:24:45;;;;;;;5.30;1.97;;;7.30;79.70;;;;;;5035687;28;20220;-84
2021/12/08 03:27:14;;;;;;;3.08;1.27;;;7.40;80.80;;;;;;5035760;28;20425;-84
2021/12/08 03:29:51;;;;;;;3.75;1.20;;;7.10;79.80;;;;;;5035861;28;20185;-84
2021/12/08 03:32:34;;;;;;;5.00;1.67;;;7.20;80.10;;;;;;5035296;28;20170;-84
2021/12/08 03:35:00;;;;;;;2.53;1.30;;;7.20;80.10;;;;;;5033664;28;20213;-84
2021/12/08 03:37:29;;;;;;;12.33;1.77;;;7.20;80.10;;;;;;5035759;28;20166;-83
2021/12/08 03:39:56;;;;;;;11.40;2.53;;;7.10;80.10;;;;;;5037156;28;20415;-84
2021/12/08 03:42:25;;;;;;;3.70;1.60;;;7.20;80.10;;;;;;5037359;28;20250;-84
2021/12/08 03:44:54;;;;;;;3.15;1.48;;;7.00;80.00;;;;;;5037078;28;20210;-83
2021/12/08 03:47:27;;;;;;;3.70;1.92;;;6.90;80.40;;;;;;5039779;28;20182;-83
2021/12/08 03:49:54;;;;;;;7.53;1.67;;;6.90;80.50;;;;;;5041159;28;20178;-83
2021/12/08 03:52:19;;;;;;;5.22;1.45;;;6.90;80.60;;;;;;5041688;28;20274;-83
2021/12/08 03:54:45;;;;;;;4.00;1.50;;;7.10;80.70;;;;;;5043076;28;20273;-83
2021/12/08 03:57:11;;;;;;;7.10;1.30;;;7.10;80.40;;;;;;5041329;28;20184;-83
2021/12/08 03:59:36;;;;;;;4.97;1.60;;;7.10;80.40;;;;;;5035599;28;20583;-83
2021/12/08 04:02:04;;;;;;;3.80;1.43;;;7.10;79.80;;;;;;5030008;28;20187;-83
2021/12/08 04:04:30;;;;;;;11.75;1.50;;;7.10;79.50;;;;;;5030225;28;20595;-83
2021/12/08 04:07:02;;;;;;;3.45;1.30;;;7.00;79.40;;;;;;5028019;28;20737;-83
2021/12/08 04:22:06;;;;;;;10.07;1.50;;;6.60;79.70;;;;;;5019105;28;20193;-84
2021/12/08 04:24:31;;;;;;;4.03;1.45;;;6.70;79.50;;;;;;5028106;28;20190;-83
2021/12/08 04:27:11;;;;;;;4.30;1.27;;;6.70;79.60;;;;;;5040314;28;20185;-83
2021/12/08 04:29:41;;;;;;;2.22;1.10;;;6.70;79.30;;;;;;5040620;28;20162;-83
2021/12/08 04:32:08;;;;;;;2.53;1.45;;;6.70;79.40;;;;;;5037760;28;20182;-83
2021/12/08 04:34:39;;;;;;;15.00;1.55;;;6.80;79.50;;;;;;5036799;28;20208;-83
2021/12/08 04:37:15;;;;;;;3.45;1.80;;;6.70;79.20;;;;;;5037459;28;20190;-83
2021/12/08 04:39:58;;;;;;;13.98;2.05;;;6.50;79.30;;;;;;5038278;28;20245;-83
2021/12/08 04:42:38;;;;;;;3.95;1.73;;;6.60;79.50;;;;;;5036461;28;20167;-84
2021/12/08 04:45:12;;;;;;;6.13;1.63;;;6.50;79.50;;;;;;5036817;28;20221;-84
2021/12/08 04:47:54;;;;;;;4.97;1.17;;;6.50;79.70;;;;;;5036981;28;20155;-84
2021/12/08 05:01:32;;;;;;;5.82;1.52;;;6.50;79.90;;;;;;5017986;28;20161;-84
2021/12/08 05:04:24;;;;;;;10.98;2.10;;;6.50;79.90;;;;;;5018240;28;20289;-83
2021/12/08 05:09:36;;;;;;;9.80;2.25;;;6.50;79.80;;;;;;5018055;28;20159;-83
2021/12/08 05:12:12;;;;;;;4.72;1.50;;;6.50;79.40;;;;;;5015542;28;20167;-84
2021/12/08 05:14:43;;;;;;;7.43;1.67;;;6.50;79.70;;;;;;5015008;28;20198;-83
2021/12/08 05:17:15;;;;;;;8.32;2.28;;;6.60;79.70;;;;;;5016747;28;20196;-83
2021/12/08 05:19:43;;;;;;;6.68;1.65;;;6.60;79.50;;;;;;5016360;28;20182;-84
2021/12/08 05:22:17;;;;;;;15.40;2.47;;;6.50;79.40;;;;;;5015892;28;20874;-84
2021/12/08 05:24:47;;;;;;;5.45;1.60;;;6.30;79.40;;;;;;5028504;28;20711;-83
2021/12/08 05:27:16;;;;;;;7.35;1.80;;;6.40;79.90;;;;;;5035651;28;20186;-83
2021/12/08 05:29:49;;;;;;;4.30;1.55;;;6.30;79.60;;;;;;5036142;28;20181;-83
2021/12/08 05:32:16;;;;;;;5.95;1.35;;;6.30;80.00;;;;;;5038135;28;20154;-84
2021/12/08 05:34:43;;;;;;;13.18;1.83;;;6.10;79.50;;;;;;5036004;28;20209;-83
2021/12/08 05:37:11;;;;;;;6.50;2.10;;;6.10;79.70;;;;;;5019590;28;20186;-83
2021/12/08 05:39:38;;;;;;;6.82;1.45;;;6.40;79.70;;;;;;5035850;28;20189;-83
2021/12/08 05:42:11;;;;;;;7.18;1.55;;;6.50;79.50;;;;;;5036193;28;20181;-83
2021/12/08 05:44:37;;;;;;;2.13;1.45;;;6.20;79.10;;;;;;5029133;28;20729;-83
2021/12/08 05:47:11;;;;;;;6.22;1.75;;;6.20;79.00;;;;;;5017180;28;20190;-83
2021/12/08 05:49:37;;;;;;;8.88;2.35;;;6.10;79.20;;;;;;5016935;28;20178;-83
2021/12/08 05:52:04;;;;;;;3.78;1.40;;;6.30;79.50;;;;;;5018116;28;20266;-83
2021/12/08 05:54:33;;;;;;;4.50;1.27;;;6.30;79.50;;;;;;5017309;28;20199;-83
2021/12/08 05:57:25;;;;;;;7.93;2.20;;;6.20;79.50;;;;;;5017386;28;20178;-83
2021/12/08 05:59:53;;;;;;;3.63;1.35;;;6.20;79.20;;;;;;5004812;28;20190;-83
2021/12/08 06:02:34;;;;;;;4.00;2.10;;;6.30;79.20;;;;;;5026913;28;20234;-83
2021/12/08 06:05:03;;;;;;;6.05;1.70;;;6.30;79.10;;;;;;5031164;28;20209;-83
2021/12/08 06:07:29;;;;;;;4.63;1.65;;;6.20;79.20;;;;;;5024156;28;20642;-84
2021/12/08 06:09:59;;;;;;;3.77;1.80;;;6.30;79.30;;;;;;5025620;28;20179;-83
2021/12/08 06:12:27;;;;;;;13.25;2.25;;;6.40;79.20;;;;;;5024366;28;20549;-83
2021/12/08 06:14:55;;;;;;;2.58;1.27;;;6.40;78.90;;;;;;5043044;28;20220;-83
2021/12/08 06:17:24;;;;;;;4.55;1.40;;;6.40;78.90;;;;;;5046434;28;20269;-83
2021/12/08 06:19:50;;;;;;;2.42;2.17;;;6.30;78.50;;;;;;5056729;28;20201;-83
2021/12/08 06:22:19;;;;;;;4.23;1.90;;;6.40;78.70;;;;;;5058027;28;20190;-83
2021/12/08 06:24:46;;;;;;;3.88;1.30;;;6.40;78.50;;;;;;5049245;28;20464;-83
2021/12/08 06:27:12;;;;;;;8.38;2.47;;;6.50;78.60;;;;;;5041771;28;20236;-83
2021/12/08 06:29:39;;;;;;;8.13;1.75;;;6.40;78.30;;;;;;5050734;28;20178;-83
2021/12/08 06:32:08;;;;;;;11.60;2.10;;;6.40;78.20;;;;;;5048900;28;20186;-84
2021/12/08 06:34:36;;;;;;;4.80;1.67;;;6.40;78.50;;;;;;5053854;28;20194;-83
2021/12/08 06:37:06;;;;;;;7.80;1.48;;;6.40;78.50;;;;;;5053865;28;20174;-84
2021/12/08 06:39:41;;;;;;;8.63;1.80;;;6.50;78.50;;;;;;5054916;28;20184;-84
2021/12/08 06:42:15;;;;;;;17.95;2.78;;;6.40;78.30;;;;;;5037567;28;20174;-84
2021/12/08 06:44:44;;;;;;;1.80;1.30;;;6.40;78.40;;;;;;5054923;28;20210;-85
2021/12/08 06:47:16;;;;;;;8.93;1.67;;;6.50;78.80;;;;;;5029384;28;20192;-84
2021/12/08 06:49:45;;;;;;;7.45;1.50;;;6.60;78.60;;;;;;5034258;28;20177;-85
2021/12/08 06:52:23;;;;;;;11.35;1.80;;;6.40;77.90;;;;;;5039439;28;20189;-84
2021/12/08 06:55:26;;;;;;;11.48;3.78;;;6.40;78.00;;;;;;5041873;28;20220;-85
2021/12/08 06:58:18;;;;;;;11.55;1.65;;;6.30;78.00;;;;;;5035868;28;20181;-85
2021/12/08 07:01:22;;;;;;;3.90;1.75;;;6.40;77.90;;;;;;5059146;28;20181;-83
2021/12/08 07:04:04;;;;;;;8.98;1.75;;;6.40;77.70;;;;;;5052834;28;20173;-85
2021/12/08 07:09:00;;;;;;;11.90;1.52;;;6.10;78.00;;;;;;5039216;28;20186;-84
2021/12/08 07:11:27;;;;;;;5.03;1.50;;;6.20;78.10;;;;;;5040321;28;20197;-84
2021/12/08 07:13:55;;;;;;;8.52;4.85;;;6.20;78.30;;;;;;5040077;28;20428;-84
2021/12/08 07:16:28;;;;;;;3.42;1.70;;;6.30;78.20;;;;;;5039795;28;20197;-84
2021/12/08 07:19:21;;;;;;;7.22;1.48;;;6.30;78.10;;;;;;5038302;28;20169;-84
2021/12/08 07:21:47;;;;;;;3.38;1.60;;;6.30;78.30;;;;;;5026497;28;20202;-84
2021/12/08 07:24:27;;;;;;;21.92;1.95;;;6.20;77.90;;;;;;5020501;28;20610;-85
2021/12/08 07:26:58;;;;;;;2.55;1.00;;;6.10;77.70;;;;;;5030704;28;20293;-85
2021/12/08 07:29:27;;;;;;;4.68;1.50;;;6.00;77.90;;;;;;5017691;28;20177;-84
2021/12/08 07:31:58;;;;;;;5.20;1.77;;;6.20;78.00;;;;;;5036494;28;20182;-84
2021/12/08 07:34:25;;;;;;;7.90;2.10;;;6.30;78.00;;;;;;5039267;28;20194;-84
2021/12/08 07:36:55;;;;;;;5.90;1.80;;;6.30;78.10;;;;;;5039622;28;20198;-84
2021/12/08 07:39:29;;;;;;;3.72;1.60;;;6.20;77.80;;;;;;5041197;28;20158;-84
2021/12/08 07:42:04;;;;;;;4.40;1.73;;;6.00;77.70;;;;;;5032697;28;20186;-84
2021/12/08 07:44:31;;;;;;;10.82;1.90;;;6.00;77.90;;;;;;5019295;28;20312;-84
2021/12/08 07:47:02;;;;;;;7.50;1.30;;;6.10;78.30;;;;;;5021724;28;20634;-84
2021/12/08 07:50:04;;;;;;;6.90;1.92;;;6.00;78.40;;;;;;5020356;28;20221;-84
2021/12/08 07:52:41;;;;;;;4.90;2.10;;;6.10;78.50;;;;;;5019295;28;20258;-84
2021/12/08 07:55:16;;;;;;;8.13;1.85;;;6.20;78.50;;;;;;5018899;28;20262;-84
2021/12/08 07:57:42;;;;;;;13.77;1.55;;;6.30;78.50;;;;;;5019838;28;20190;-84
2021/12/08 08:00:21;;;;;;;7.18;1.60;;;6.30;78.20;;;;;;5035471;28;20546;-82
2021/12/08 08:02:47;;;;;;;4.53;1.75;;;6.20;78.00;;;;;;5037126;28;20182;-80
2021/12/08 08:05:16;;;;;;;3.72;1.67;;;6.30;77.80;;;;;;5037918;28;20209;-82
2021/12/08 08:07:43;;;;;;;2.42;1.20;;;6.10;77.90;;;;;;5021008;28;20193;-82
2021/12/08 08:10:15;;;;;;;2.47;1.40;;;6.10;78.00;;;;;;5038646;28;20185;-81
2021/12/08 08:12:43;;;;;;;11.63;2.33;;;5.90;78.20;;;;;;5038737;28;20165;-80
2021/12/08 08:15:20;;;;;;;9.13;1.88;;;6.20;78.20;;;;;;5037862;28;20202;-82
2021/12/08 08:17:50;;;;;;;2.90;1.40;;;6.00;77.70;;;;;;5044512;28;20216;-82
2021/12/08 08:20:28;;;;;;;5.82;1.65;;;6.20;78.10;;;;;;5042901;28;20205;-81
2021/12/08 08:22:55;;;;;;;8.35;1.98;;;6.20;78.40;;;;;;5043879;28;20185;-82
2021/12/08 08:25:24;;;;;;;9.20;1.58;;;6.40;78.40;;;;;;5038220;28;20201;-80
2021/12/08 08:27:50;;;;;;;3.05;1.88;;;6.30;77.90;;;;;;5037108;28;20182;-81
2021/12/08 08:30:21;;;;;;;6.00;1.90;;;6.10;77.20;;;;;;5035731;28;20418;-82
2021/12/08 08:32:51;;;;;;;4.80;2.20;;;6.10;77.80;;;;;;5028348;28;20191;-90
2021/12/08 08:35:29;;;;;;;5.43;1.52;;;6.20;77.80;;;;;;5032715;28;20407;-85
2021/12/08 08:37:56;;;;;;;3.67;1.30;;;6.20;77.60;;;;;;5016875;28;20174;-84
2021/12/08 08:40:43;;;;;;;7.05;1.30;;;6.30;77.50;;;;;;5018575;28;20175;-86
2021/12/08 08:43:10;;;;;;;8.00;1.35;;;6.30;77.10;;;;;;5024852;28;20241;-87
2021/12/08 08:45:42;;;;;;;10.18;1.40;;;6.30;77.30;;;;;;5029918;28;20222;-85
2021/12/08 08:48:17;;;;;;;6.53;2.05;;;6.50;77.30;;;;;;5029396;28;20163;-86
2021/12/08 08:50:57;;;;;;;7.15;1.20;;;6.50;76.90;;;;;;5032141;28;20202;-87
2021/12/08 08:53:27;;;;;;;7.38;2.05;;;6.60;76.50;;;;;;5029552;28;20185;-86
2021/12/08 08:56:06;;;;;;;7.53;1.42;;;6.90;76.70;;;;;;5028681;28;20212;-86
2021/12/08 08:58:34;;;;;;;3.60;1.10;;;7.00;75.70;;;;;;5029165;28;20209;-86
2021/12/08 09:01:15;;;;;;;5.65;1.40;;;7.00;75.40;;;;;;5032003;28;20178;-86
2021/12/08 09:03:45;;;;;;;4.53;1.10;;;6.70;75.00;;;;;;5030100;28;20262;-86
2021/12/08 09:06:18;;;;;;;2.75;1.10;;;7.00;75.20;;;;;;5028645;28;20210;-85
2021/12/08 09:08:45;;;;;;;8.35;1.92;;;7.10;75.00;;;;;;5010411;28;20171;-85
2021/12/08 09:11:31;;;;;;;4.65;1.73;;;7.10;74.50;;;;;;5018755;28;20178;-84
2021/12/08 09:14:09;;;;;;;2.25;1.50;;;6.80;74.40;;;;;;5017468;28;20277;-84
2021/12/08 09:17:18;;;;;;;4.93;1.35;;;6.80;75.10;;;;;;5016647;28;20175;-86
2021/12/08 09:20:00;;;;;;;5.47;1.52;;;6.70;75.40;;;;;;5015460;28;20641;-85
2021/12/08 09:22:36;;;;;;;3.17;1.30;;;6.80;75.30;;;;;;5015439;28;20190;-85
2021/12/08 09:25:25;;;;;;;3.90;1.10;;;6.80;75.10;;;;;;5015936;28;20210;-86
2021/12/08 09:27:54;;;;;;;4.93;1.40;;;6.90;75.00;;;;;;5015293;28;20638;-86
2021/12/08 09:30:36;;;;;;;3.95;1.60;;;6.80;75.00;;;;;;5030572;28;20196;-87
2021/12/08 09:33:09;;;;;;;2.30;1.30;;;7.00;75.20;;;;;;5035397;28;20166;-85
2021/12/08 09:35:51;;;;;;;8.77;1.80;;;7.30;75.10;;;;;;5039338;28;20296;-86
2021/12/08 09:38:30;;;;;;;3.83;1.42;;;7.20;74.10;;;;;;5040486;28;20185;-86
2021/12/08 09:41:04;;;;;;;3.05;1.40;;;7.20;74.00;;;;;;5053929;28;20205;-86
2021/12/08 09:43:34;;;;;;;1.30;1.10;;;7.30;73.80;;;;;;5060316;28;20181;-86
2021/12/08 09:46:12;;;;;;;1.90;1.30;;;7.70;74.30;;;;;;5060002;28;20212;-87
2021/12/08 09:48:41;;;;;;;10.88;1.63;;;7.60;73.60;;;;;;5060072;28;20311;-87
2021/12/08 09:51:07;;;;;;;7.97;1.70;;;7.70;73.20;;;;;;5059953;28;20204;-87
2021/12/08 09:53:34;;;;;;;6.78;1.63;;;7.50;72.80;;;;;;5056709;28;20185;-86
2021/12/08 09:56:01;;;;;;;8.07;1.88;;;7.70;73.00;;;;;;5057407;28;20258;-86
2021/12/08 09:58:27;;;;;;;5.63;1.30;;;7.80;73.00;;;;;;5060293;28;20791;-86
2021/12/08 10:00:55;;;;;;;3.67;2.17;;;7.90;72.30;;;;;;5059425;28;20204;-85
2021/12/08 10:03:22;;;;;;;4.10;1.60;;;7.60;72.00;;;;;;5059947;28;20185;-85
2021/12/08 10:05:47;;;;;;;1.35;1.25;;;7.40;72.40;;;;;;5059372;28;20215;-86
2021/12/08 10:08:13;;;;;;;5.83;1.50;;;7.40;72.90;;;;;;5058192;28;20268;-86
2021/12/08 10:10:41;;;;;;;14.13;1.53;;;7.50;73.10;;;;;;5059837;28;20411;-86
2021/12/08 10:13:08;;;;;;;3.67;1.70;;;7.80;73.40;;;;;;5058060;28;20411;-86
2021/12/08 10:15:35;;;;;;;10.35;2.30;;;7.70;72.10;;;;;;5057841;28;20231;-85
2021/12/08 10:18:01;;;;;;;2.92;1.90;;;8.00;72.50;;;;;;5059123;28;20173;-85
2021/12/08 10:20:36;;;;;;;3.92;1.00;;;8.10;72.50;;;;;;5059803;28;20200;-86
2021/12/08 10:23:19;;;;;;;3.80;1.17;;;8.30;72.20;;;;;;5058940;28;20199;-88
2021/12/08 10:25:44;;;;;;;2.17;1.40;;;8.20;70.70;;;;;;5058537;28;20540;-82
2021/12/08 10:28:15;;;;;;;3.60;1.47;;;8.10;70.70;;;;;;5058390;28;20185;-81
2021/12/08 10:30:56;;;;;;;7.20;1.75;;;8.20;70.70;;;;;;5041523;28;20173;-80
2021/12/08 10:36:47;;;;;;;2.40;1.42;;;8.10;70.90;;;;;;5039173;28;20182;-81
2021/12/08 10:39:35;;;;;;;6.57;1.98;;;8.10;70.50;;;;;;5036463;28;20276;-80
2021/12/08 10:42:18;;;;;;;2.28;1.33;;;8.10;70.60;;;;;;5040247;28;20172;-81
2021/12/08 10:45:06;;;;;;;9.50;1.75;;;8.20;71.00;;;;;;5034524;28;20214;-81
2021/12/08 10:47:48;;;;;;;2.40;1.50;;;8.30;71.00;;;;;;5029879;28;20177;-80
2021/12/08 10:55:58;;;;;;;5.57;1.38;;;8.40;70.50;;;;;;5019897;28;20270;-81
2021/12/08 10:58:27;;;;;;;5.93;2.10;;;8.30;69.80;;;;;;5019336;28;20502;-82
2021/12/08 11:00:56;;;;;;;3.45;1.77;;;8.20;69.90;;;;;;5002481;28;20195;-81
2021/12/08 11:03:22;;;;;;;4.85;1.90;;;8.40;70.20;;;;;;5035526;28;20178;-81
2021/12/08 11:05:51;;;;;;;3.10;1.40;;;8.40;69.90;;;;;;5038918;28;20296;-83
2021/12/08 11:08:22;;;;;;;5.43;1.67;;;8.50;69.80;;;;;;5037837;28;20186;-81
2021/12/08 11:10:52;;;;;;;3.22;1.45;;;8.50;69.70;;;;;;5037993;28;20261;-81
2021/12/08 11:13:21;;;;;;;8.20;2.20;;;8.80;69.50;;;;;;5039549;28;20162;-82
2021/12/08 11:15:57;;;;;;;6.57;2.63;;;8.70;69.30;;;;;;5037092;28;20208;-82
2021/12/08 11:18:23;;;;;;;5.70;1.80;;;8.70;69.20;;;;;;5038637;28;20166;-80
2021/12/08 11:21:02;;;;;;;3.50;1.42;;;8.70;69.10;;;;;;5018238;28;20298;-82
2021/12/08 11:23:45;;;;;;;3.38;1.50;;;8.90;69.20;;;;;;5034686;28;20237;-82
2021/12/08 11:26:25;;;;;;;8.07;1.40;;;9.00;69.00;;;;;;5019953;28;20280;-81
2021/12/08 11:29:02;;;;;;;1.92;1.25;;;9.10;68.40;;;;;;5025892;28;20173;-82
2021/12/08 11:32:02;;;;;;;2.80;2.55;;;9.10;67.90;;;;;;5053874;28;20229;-82
2021/12/08 11:34:48;;;;;;;5.75;2.25;;;8.90;67.90;;;;;;5042777;28;20209;-81
2021/12/08 11:37:21;;;;;;;6.97;2.17;;;9.10;68.40;;;;;;5041810;28;20228;-82
2021/12/08 11:39:52;;;;;;;3.53;1.60;;;9.20;67.70;;;;;;5038173;28;20184;-81
2021/12/08 11:42:24;;;;;;;4.43;1.35;;;9.30;67.80;;;;;;5034490;28;20190;-82
2021/12/08 11:44:57;;;;;;;4.65;1.30;;;9.30;67.30;;;;;;5017674;28;20753;-81
2021/12/08 11:47:28;;;;;;;1.50;1.40;;;9.30;66.90;;;;;;5019834;28;20227;-80
2021/12/08 11:49:59;;;;;;;10.30;1.80;;;9.30;67.00;;;;;;5018634;28;20554;-81
2021/12/08 11:52:32;;;;;;;4.40;1.85;;;9.30;66.80;;;;;;5018906;28;20179;-82
2021/12/08 11:55:11;;;;;;;2.92;1.50;;;9.20;66.70;;;;;;5019674;28;20199;-81
2021/12/08 11:57:45;;;;;;;4.55;2.10;;;9.00;67.00;;;;;;5019275;28;20240;-81
2021/12/08 12:00:18;;;;;;;8.77;1.50;;;9.10;66.90;;;;;;5025560;28;20166;-81
2021/12/08 12:02:55;;;;;;;4.95;1.50;;;9.00;66.90;;;;;;5019814;28;20253;-81
2021/12/08 12:05:28;;;;;;;2.70;1.40;;;9.10;67.60;;;;;;5033358;28;20202;-81
2021/12/08 12:07:54;;;;;;;9.50;1.50;;;9.10;67.30;;;;;;5040784;28;20206;-81
2021/12/08 12:10:24;;;;;;;9.25;1.60;;;9.10;67.30;;;;;;5024341;28;20187;-81
2021/12/08 12:12:51;;;;;;;4.43;1.80;;;9.20;67.60;;;;;;5032156;28;20239;-81
2021/12/08 12:15:21;;;;;;;4.50;1.40;;;9.20;67.30;;;;;;5035297;28;20668;-82
2021/12/08 12:17:53;;;;;;;2.38;1.33;;;9.10;67.30;;;;;;5036940;28;20196;-81
2021/12/08 12:20:30;;;;;;;2.47;1.45;;;9.00;66.90;;;;;;5038728;28;20621;-81
2021/12/08 12:23:26;;;;;;;4.25;1.10;;;9.20;67.00;;;;;;5033767;28;20211;-82
2021/12/08 12:26:03;;;;;;;3.22;1.50;;;9.20;67.20;;;;;;5034018;28;20263;-82
2021/12/08 12:28:58;;;;;;;3.97;1.75;;;9.40;66.80;;;;;;5033812;28;20268;-82
2021/12/08 12:31:42;;;;;;;5.47;1.40;;;9.40;66.30;;;;;;5036467;28;20244;-80
2021/12/08 12:34:28;;;;;;;8.02;1.60;;;9.30;66.30;;;;;;5032977;28;20225;-80
2021/12/08 12:36:56;;;;;;;4.22;1.80;;;9.10;66.70;;;;;;5026798;28;20186;-80
2021/12/08 12:39:28;;;;;;;3.17;1.67;;;9.10;66.90;;;;;;5036145;28;20224;-80
2021/12/08 12:42:00;;;;;;;4.28;2.03;;;9.20;67.10;;;;;;5037217;28;20200;-80
2021/12/08 12:44:30;;;;;;;5.68;1.52;;;9.10;66.80;;;;;;5044021;28;20201;-80
2021/12/08 12:47:09;;;;;;;5.93;3.38;;;9.00;67.40;;;;;;5056768;28;20205;-80
2021/12/08 12:49:37;;;;;;;4.45;1.75;;;9.00;67.20;;;;;;5053463;28;20180;-79
2021/12/08 12:52:09;;;;;;;7.63;1.73;;;8.80;67.40;;;;;;5030246;28;20265;-81
2021/12/08 12:54:37;;;;;;;6.22;2.28;;;8.70;67.70;;;;;;5031485;28;20201;-82
2021/12/08 12:57:06;;;;;;;5.10;2.10;;;8.80;67.60;;;;;;5034184;28;20170;-81
2021/12/08 12:59:51;;;;;;;4.40;1.70;;;8.60;67.80;;;;;;5035111;28;20199;-81
2021/12/08 13:02:26;;;;;;;2.10;1.52;;;8.70;68.40;;;;;;5033233;28;20241;-81
2021/12/08 13:04:57;;;;;;;7.13;2.95;;;8.70;68.70;;;;;;5036613;28;20197;-81
2021/12/08 13:07:27;;;;;;;3.50;1.52;;;8.60;68.20;;;;;;5032250;28;20179;-81
2021/12/08 13:09:58;;;;;;;11.00;1.67;;;8.60;68.40;;;;;;5025555;28;20273;-82
2021/12/08 13:12:35;;;;;;;5.10;1.77;;;8.80;68.80;;;;;;5018884;28;20274;-81
2021/12/08 13:15:13;;;;;;;2.63;1.50;;;9.00;68.40;;;;;;5031314;28;20206;-82
2021/12/08 13:17:57;;;;;;;2.55;1.70;;;9.00;68.20;;;;;;5045954;28;20177;-81
2021/12/08 13:20:26;;;;;;;5.68;1.95;;;8.90;68.10;;;;;;5033483;28;20197;-81
2021/12/08 13:22:54;;;;;;;8.98;1.90;;;8.90;68.00;;;;;;5038911;28;20174;-81
2021/12/08 13:28:15;;;;;;;13.30;2.00;;;8.70;68.40;;;;;;5027061;28;20259;-80
2021/12/08 13:30:48;;;;;;;9.18;1.83;;;8.40;68.40;;;;;;5032401;28;20193;-80
2021/12/08 13:33:26;;;;;;;2.00;1.60;;;8.60;69.10;;;;;;5040275;28;20241;-80
2021/12/08 13:35:53;;;;;;;6.80;1.70;;;8.60;69.10;;;;;;5045571;28;20585;-80
2021/12/08 13:38:19;;;;;;;4.10;1.50;;;8.60;69.10;;;;;;5047486;28;20301;-80
2021/12/08 13:41:11;;;;;;;7.13;2.40;;;8.70;68.90;;;;;;5051924;28;20185;-80
2021/12/08 13:43:42;;;;;;;5.43;1.70;;;8.70;68.80;;;;;;5043793;28;20668;-80
2021/12/08 13:46:10;;;;;;;4.55;2.28;;;8.90;68.50;;;;;;5042916;28;20213;-80
2021/12/08 13:49:09;;;;;;;7.03;2.35;;;8.70;68.40;;;;;;5036264;28;20178;-82
2021/12/08 13:51:35;;;;;;;9.95;2.28;;;8.80;67.90;;;;;;5045216;28;20632;-81
2021/12/08 13:54:28;;;;;;;4.77;1.90;;;8.60;67.40;;;;;;5035554;28;20202;-81
2021/12/08 13:56:55;;;;;;;4.45;1.90;;;8.50;68.00;;;;;;5043334;28;20512;-81
2021/12/08 13:59:52;;;;;;;3.30;1.50;;;8.70;68.10;;;;;;5057421;28;20174;-81
2021/12/08 14:02:41;;;;;;;2.45;1.83;;;8.60;68.00;;;;;;5047051;28;20185;-81
2021/12/08 14:05:10;;;;;;;2.30;1.95;;;8.50;68.60;;;;;;5055274;28;20285;-80
2021/12/08 14:07:41;;;;;;;3.85;2.05;;;8.50;68.50;;;;;;5061816;28;20178;-81
2021/12/08 14:10:13;;;;;;;5.40;2.08;;;8.50;68.50;;;;;;5047075;28;20178;-82
2021/12/08 14:12:45;;;;;;;7.97;2.53;;;8.50;68.80;;;;;;5040605;28;20185;-80
2021/12/08 14:15:30;;;;;;;2.72;1.85;;;8.40;68.90;;;;;;5036033;28;20225;-80
2021/12/08 14:18:21;;;;;;;8.15;2.15;;;8.30;69.00;;;;;;5045426;28;20178;-82
2021/12/08 14:21:00;;;;;;;3.00;2.05;;;8.50;69.00;;;;;;5054670;28;20215;-81
2021/12/08 14:23:30;;;;;;;2.42;2.15;;;8.40;68.30;;;;;;5048517;28;20227;-81
2021/12/08 14:25:58;;;;;;;7.82;2.22;;;8.70;68.70;;;;;;5022795;28;20614;-81
2021/12/08 14:28:39;;;;;;;5.03;1.67;;;8.60;68.70;;;;;;5046626;28;20309;-81
2021/12/08 14:31:24;;;;;;;4.85;2.78;;;8.60;68.50;;;;;;5052309;28;20256;-81
2021/12/08 14:33:56;;;;;;;8.60;2.38;;;8.60;68.40;;;;;;5053728;28;20200;-82